ソチ空港の過去48時間の天気

ソチ空港 (Adler)

現在時刻: 12/10 01:13 MSK (12/9 22:13 UTC) 以下の時間は現地時間です。

過去48時間のMETAR気象情報
時間 風向 風速(m/s) 視程 気温(℃) 湿度(%) 気圧(hPa) 天気現象
10 00:30 北東 5 10km以上 9 62 1013
10 00:00 北東 6 10km以上 8 66 1013
9 23:30 北東 5 10km以上 8 66 1013
9 23:00 北東 4 10km以上 8 66 1013
9 22:30 北東 4 10km以上 9 62 1013
9 22:00 北東 5 10km以上 8 71 1014
9 21:30 北東 3 10km以上 8 71 1014
9 21:00 北北東 3 10km以上 8 71 1014
9 20:30 北東 3 10km以上 9 66 1014
9 20:00 北東 5 10km以上 9 71 1014
9 19:30 北東 6 10km以上 9 66 1014
9 19:00 北東 4 10km以上 9 71 1015
9 18:30 6 10km以上 9 66 1015
9 18:00 5 10km以上 9 71 1015
9 17:30 北東 5 10km以上 10 71 1015
9 17:00 東南東 2 10km以上 12 67 1015
9 16:30 南東 3 10km以上 12 67 1016
9 16:00 東南東 2 10km以上 12 67 1016
9 15:30 南東 3 10km以上 13 62 1016
9 15:00 南東 5 10km以上 12 67 1016
9 14:30 南東 5 10km以上 12 62 1016
9 14:00 南南東 5 10km以上 12 62 1016
9 13:30 南東 4 10km以上 12 62 1017
9 13:00 南東 6 10km以上 12 62 1017
9 12:30 南東 5 10km以上 12 62 1017
9 12:00 南東 5 10km以上 12 58 1017
9 11:30 4 10km以上 11 58 1018
9 11:00 東北東 4 10km以上 11 54 1018
9 10:30 東北東 4 10km以上 10 62 1019
9 10:00 東北東 4 10km以上 9 66 1019
9 09:30 6 10km以上 7 70 1019
9 09:00 7 10km以上 6 76 1019
9 08:30 6 10km以上 5 81 1019
9 08:00 北東 6 10km以上 5 75 1018
9 07:30 北東 5 10km以上 5 75 1018
9 07:00 北東 5 10km以上 5 75 1018
9 06:30 北東 6 10km以上 5 81 1018
9 06:00 北東 5 10km以上 5 81 1018
9 05:30 北東 5 10km以上 5 81 1018
9 05:00 北東 5 10km以上 5 81 1019
9 04:30 北東 4 10km以上 5 81 1019
9 04:00 北東 4 10km以上 5 81 1019
9 03:30 北東 4 10km以上 5 81 1019
9 03:00 北東 4 10km以上 5 81 1019
9 02:30 北東 4 10km以上 6 76 1019
9 02:00 北東 3 10km以上 5 87 1019
9 01:30 北東 3 10km以上 6 76 1019
9 01:00 北東 3 10km以上 6 81 1019
9 00:30 北東 3 10km以上 6 81 1019
9 00:00 北東 3 10km以上 7 76 1019
8 23:30 北東 3 10km以上 7 76 1019
8 23:00 北東 4 10km以上 7 76 1019
8 22:30 北東 3 10km以上 7 81 1019
URSS 092130Z 04005MPS 9999 NSC 09/02 Q1013 WS ALL RWY R02/090070 R06/090070 NOSIG RMK R06/07007MPS QFE758
URSS 092100Z 04006MPS 9999 NSC 08/02 Q1013 WS ALL RWY R02/090070 R06/090070 NOSIG RMK R06/08005MPS QFE758
URSS 092030Z 04005MPS 9999 NSC 08/02 Q1013 WS ALL RWY R02/090070 R06/090070 NOSIG RMK R06/07003MPS QFE758
URSS 092000Z 04004MPS 9999 NSC 08/02 Q1013 WS ALL RWY R02/090070 R06/090070 NOSIG RMK R06/07005MPS QFE758
URSS 091930Z 04004MPS 9999 NSC 09/02 Q1013 WS ALL RWY R02/090070 R06/090070 NOSIG RMK R06/07006MPS QFE759
URSS 091900Z 04005MPS 9999 NSC 08/03 Q1014 WS ALL RWY R02/090070 R06/090070 NOSIG RMK R06/07006MPS QFE759
URSS 091830Z 04003MPS 9999 NSC 08/03 Q1014 WS ALL RWY R02/090070 R06/090070 NOSIG RMK R06/07006MPS QFE759
URSS 091800Z 03003MPS 9999 NSC 08/03 Q1014 WS ALL RWY R02/090070 R06/090070 NOSIG RMK R06/08006MPS QFE759
URSS 091730Z 04003MPS 9999 NSC 09/03 Q1014 WS ALL RWY R02/090070 R06/090070 NOSIG RMK R06/08006MPS QFE759
URSS 091700Z 05005MPS 9999 NSC 09/04 Q1014 R02/090070 R06/090070 NOSIG RMK R06/07006MPS QFE759
URSS 091630Z 04006MPS 9999 NSC 09/03 Q1014 WS ALL RWY R02/090070 R06/090070 NOSIG RMK R06/07007MPS QFE759
URSS 091600Z 05004MPS 9999 NSC 09/04 Q1015 WS ALL RWY R02/090070 R06/090070 NOSIG RMK R06/08005MPS QFE760
URSS 091530Z 08006MPS 9999 NSC 09/03 Q1015 WS ALL RWY R06/090070 R02/090070 NOSIG RMK R02/03003MPS QFE760
URSS 091500Z 09005MPS 9999 NSC 09/04 Q1015 WS ALL RWY R06/090070 R02/090070 NOSIG RMK R02/04005G08MPS QFE760
URSS 091430Z 05005MPS 9999 NSC 10/05 Q1015 WS ALL RWY R06/090070 R02/090070 NOSIG RMK R02/05005MPS QFE760
URSS 091400Z 12002MPS 090V160 9999 NSC 12/06 Q1015 WS ALL RWY R06/090070 R02/090070 NOSIG RMK R02/03002MPS QFE760
URSS 091330Z 13003MPS 9999 NSC 12/06 Q1016 WS ALL RWY R06/090070 R02/090070 NOSIG RMK R02/13002MPS QFE761
URSS 091300Z 11002MPS 9999 FEW026 12/06 Q1016 WS ALL RWY R06/090070 R02/090070 NOSIG RMK R02/10002MPS MT OBSC QFE761
URSS 091230Z 13003MPS 9999 FEW026 13/06 Q1016 WS ALL RWY R06/090070 R02/090070 NOSIG RMK R02/14003MPS MT OBSC QFE761
URSS 091200Z 13005MPS 9999 FEW026 12/06 Q1016 WS ALL RWY R06/090070 R02/090070 NOSIG RMK R02/13004MPS MT OBSC QFE761
URSS 091130Z 13005MPS 9999 FEW026 12/05 Q1016 WS ALL RWY R06/090070 R02/090070 NOSIG RMK R02/13005G08MPS MT OBSC QFE761
URSS 091100Z 15005MPS 9999 FEW026 12/05 Q1016 WS ALL RWY R06/090070 R02/090070 NOSIG RMK R02/15004MPS MT OBSC QFE761
URSS 091030Z 13004MPS 9999 SCT025 12/05 Q1017 WS ALL RWY R06/090070 R02/090070 NOSIG RMK R02/13004G07MPS MT OBSC QFE761
URSS 091000Z 13006MPS 9999 SCT025 12/05 Q1017 WS ALL RWY R06/090070 R02/090070 NOSIG RMK R02/13004MPS MT OBSC QFE761
URSS 090930Z 13005MPS 9999 FEW025 12/05 Q1017 R06/090070 R02/090070 NOSIG RMK R02/14004G07MPS MT OBSC QFE762
URSS 090900Z 14005MPS 9999 FEW030 12/04 Q1017 R06/090070 R02/090070 NOSIG RMK R02/13004G07MPS MT OBSC QFE762
URSS 090830Z 09004MPS 9999 FEW030 11/03 Q1018 R06/090070 R02/090070 NOSIG RMK R02/10003G06MPS MT OBSC QFE762
URSS 090800Z 06004MPS 9999 FEW028 11/02 Q1018 R06/090070 R02/090070 NOSIG RMK R02/02005MPS MT OBSC QFE763
URSS 090730Z 07004MPS 9999 FEW027 10/03 Q1019 R06/090070 R02/090070 NOSIG RMK R02/03006MPS MT OBSC QFE763
URSS 090700Z 07004MPS 9999 FEW027 09/03 Q1019 R06/090070 R02/090070 NOSIG RMK R02/04005MPS MT OBSC QFE763
URSS 090630Z 08006MPS 9999 FEW027 07/02 Q1019 R06/090070 R02/090070 NOSIG RMK R02/03005MPS MT OBSC QFE763
URSS 090600Z 08007MPS 9999 FEW027 06/02 Q1019 R06/090070 R02/090070 NOSIG RMK R02/04006MPS MT OBSC QFE763
URSS 090530Z 08006MPS 9999 FEW026 05/02 Q1019 R06/090070 R02/090070 NOSIG RMK R02/04006MPS MT OBSC QFE763
URSS 090500Z 04006MPS 9999 SCT030 05/01 Q1018 R02/090070 R06/090070 NOSIG RMK R06/08007MPS MT OBSC QFE762
URSS 090430Z 04005MPS 9999 SCT030 05/01 Q1018 R02/090070 R06/090070 NOSIG RMK R06/08007MPS MT OBSC QFE762
URSS 090400Z 05005MPS 9999 NSC 05/01 Q1018 R02/090070 R06/090070 NOSIG RMK R06/08007MPS QFE762
URSS 090330Z 04006MPS 9999 NSC 05/02 Q1018 R02/090070 R06/090070 NOSIG RMK R06/08006MPS QFE762
URSS 090300Z 04005MPS 9999 NSC 05/02 Q1018 R02/090070 R06/090070 NOSIG RMK R06/08007MPS QFE762
URSS 090230Z 05005MPS 9999 SCT100 05/02 Q1018 R02/090070 R06/090070 NOSIG RMK R06/07004MPS QFE762
URSS 090200Z 05005MPS 9999 SCT100 05/02 Q1019 R02/090070 R06/090070 NOSIG RMK R06/06003MPS QFE763
URSS 090130Z 05004MPS 9999 SCT100 05/02 Q1019 R02/090070 R06/090070 NOSIG RMK R06/07004MPS QFE763
URSS 090100Z 05004MPS 9999 SCT070 05/02 Q1019 R02/090070 R06/090070 NOSIG RMK R06/06003MPS QFE763
URSS 090030Z 05004MPS 9999 SCT070 05/02 Q1019 R02/090070 R06/090070 NOSIG RMK R06/08005MPS QFE763
URSS 090000Z 05004MPS 9999 BKN070 05/02 Q1019 R02/090070 R06/090070 NOSIG RMK R06/07004MPS QFE763
URSS 082330Z 04004MPS 9999 BKN070 06/02 Q1019 R02/090070 R06/090070 NOSIG RMK R06/08004MPS QFE763
URSS 082300Z 05003MPS 9999 SCT070 05/03 Q1019 R02/090070 R06/090070 NOSIG RMK R06/08003MPS QFE763
URSS 082230Z 04003MPS 9999 FEW093 06/02 Q1019 R02/090070 R06/090070 NOSIG RMK R06/08004MPS QFE763
URSS 082200Z 05003MPS 9999 BKN093 06/03 Q1019 R02/090070 R06/090070 NOSIG RMK R06/08004MPS QFE763
URSS 082130Z 04003MPS 9999 OVC093 06/03 Q1019 R02/090070 R06/090070 NOSIG RMK R06/08003MPS QFE763
URSS 082100Z 04003MPS 9999 OVC090 07/03 Q1019 R02/090070 R06/090070 NOSIG RMK R06/08003MPS QFE763
URSS 082030Z 05003MPS 9999 OVC090 07/03 Q1019 R02/090070 R06/090070 NOSIG RMK R06/07002MPS QFE763
URSS 082000Z 05004MPS 9999 OVC090 07/03 Q1019 R02/090070 R06/090070 NOSIG RMK R06/09003MPS QFE763
URSS 081930Z 05003MPS 9999 OVC090 07/04 Q1019 R02/090070 R06/090070 NOSIG RMK R06/00000MPS QFE763